createdAt,value
2022-08-04T00:00:07.765Z,64.51
2022-08-04T00:02:52.774Z,64.67
2022-08-04T00:05:30.643Z,65.08
2022-08-04T00:08:12.216Z,65.79
2022-08-04T00:10:41.522Z,66.40
2022-08-04T00:13:10.561Z,67.22
2022-08-04T00:15:39.321Z,67.10
2022-08-04T00:18:11.641Z,67.18
2022-08-04T00:20:42.354Z,67.11
2022-08-04T00:23:10.868Z,67.56
2022-08-04T00:25:41.426Z,66.94
2022-08-04T00:28:09.934Z,67.27
2022-08-04T00:30:37.765Z,67.25
2022-08-04T00:33:05.711Z,67.24
2022-08-04T00:35:35.619Z,67.68
2022-08-04T00:38:04.408Z,67.62
2022-08-04T00:40:44.696Z,67.56
2022-08-04T00:43:20.633Z,68.07
2022-08-04T00:46:23.722Z,68.81
2022-08-04T00:49:20.979Z,69.42
2022-08-04T00:52:32.275Z,69.37
2022-08-04T00:55:06.888Z,69.53
2022-08-04T00:57:52.201Z,69.32
2022-08-04T01:00:21.256Z,69.40
2022-08-04T01:03:03.006Z,69.31
2022-08-04T01:05:42.121Z,69.58
2022-08-04T01:08:31.114Z,70.33
2022-08-04T01:11:05.495Z,70.33
2022-08-04T01:14:00.197Z,69.76
2022-08-04T01:16:29.347Z,69.45
2022-08-04T01:19:00.550Z,69.20
2022-08-04T01:22:10.292Z,68.07
2022-08-04T01:25:11.096Z,67.27
2022-08-04T01:28:00.557Z,66.60
2022-08-04T01:30:33.370Z,66.08
2022-08-04T01:33:05.406Z,66.03
2022-08-04T01:35:48.018Z,66.00
2022-08-04T01:38:23.565Z,66.31
2022-08-04T01:40:54.491Z,66.58
2022-08-04T01:43:23.256Z,67.16
2022-08-04T01:45:58.928Z,67.68
2022-08-04T01:48:28.371Z,68.00
2022-08-04T01:50:59.885Z,69.25
2022-08-04T01:53:32.609Z,69.33
2022-08-04T01:56:02.775Z,69.96
2022-08-04T01:58:33.259Z,70.63
2022-08-04T02:01:08.513Z,70.38
2022-08-04T02:04:20.920Z,70.70
2022-08-04T02:06:33.183Z,71.51
2022-08-04T02:09:08.485Z,71.37
2022-08-04T02:11:36.267Z,72.10
2022-08-04T02:14:35.139Z,71.99
2022-08-04T02:17:06.619Z,71.66
2022-08-04T02:19:39.856Z,72.37
2022-08-04T02:22:10.326Z,72.71
2022-08-04T02:24:47.195Z,73.25
2022-08-04T02:27:15.849Z,72.93
2022-08-04T02:29:51.858Z,72.52
2022-08-04T02:32:26.505Z,73.63
2022-08-04T02:34:59.121Z,73.25
2022-08-04T02:37:27.577Z,73.83
2022-08-04T02:39:56.122Z,73.31
2022-08-04T02:42:24.458Z,73.81
2022-08-04T02:44:53.548Z,73.70
2022-08-04T02:48:23.589Z,73.09
2022-08-04T02:50:28.363Z,72.81
2022-08-04T02:52:59.352Z,72.36
2022-08-04T02:55:28.753Z,72.77
2022-08-04T02:57:59.547Z,72.58
2022-08-04T03:00:28.156Z,72.91
2022-08-04T03:03:08.908Z,72.63
2022-08-04T03:06:10.559Z,73.40
2022-08-04T03:09:30.334Z,73.19
2022-08-04T03:12:37.461Z,73.25
2022-08-04T03:15:36.732Z,73.55
2022-08-04T03:18:47.822Z,72.99
2022-08-04T03:21:49.696Z,73.23
2022-08-04T03:24:50.918Z,72.98
2022-08-04T03:27:45.992Z,73.12
2022-08-04T03:30:17.691Z,72.67
2022-08-04T03:33:16.598Z,72.62
2022-08-04T03:36:32.050Z,72.92
2022-08-04T03:39:32.783Z,72.37
2022-08-04T03:42:16.151Z,72.52
2022-08-04T03:45:23.177Z,72.80
2022-08-04T03:48:37.998Z,72.46
2022-08-04T03:51:52.902Z,72.13
2022-08-04T03:54:44.419Z,72.97
2022-08-04T03:57:40.659Z,72.58
2022-08-04T04:00:10.726Z,71.74
2022-08-04T04:03:28.560Z,71.31
2022-08-04T04:06:34.650Z,70.92
2022-08-04T04:09:20.524Z,69.76
2022-08-04T04:12:16.146Z,67.18
2022-08-04T04:14:56.080Z,63.68
2022-08-04T04:17:55.436Z,61.36
2022-08-04T04:20:55.570Z,55.90
2022-08-04T04:23:34.388Z,53.29
2022-08-04T04:26:26.953Z,51.08
2022-08-04T04:29:04.543Z,47.65
2022-08-04T04:31:47.561Z,46.36
2022-08-04T04:34:28.558Z,44.38
2022-08-04T04:37:13.411Z,41.92
2022-08-04T04:39:53.650Z,41.28
2022-08-04T04:42:39.247Z,39.95
2022-08-04T04:45:24.669Z,36.95
2022-08-04T04:48:09.407Z,35.11
2022-08-04T04:50:50.074Z,34.22
2022-08-04T04:53:25.326Z,33.09
2022-08-04T04:56:01.323Z,32.08
2022-08-04T04:58:34.604Z,30.00
2022-08-04T05:01:17.663Z,30.50
2022-08-04T05:04:00.876Z,30.07
2022-08-04T05:06:54.503Z,29.45
2022-08-04T05:09:47.673Z,29.14
2022-08-04T05:14:33.017Z,28.96
2022-08-04T05:15:36.165Z,28.06
2022-08-04T05:18:07.724Z,27.95
2022-08-04T05:20:40.274Z,27.28
2022-08-04T05:23:14.665Z,26.39
2022-08-04T05:25:58.935Z,26.40
2022-08-04T05:28:30.181Z,26.16
2022-08-04T05:31:05.178Z,25.78
2022-08-04T05:33:42.825Z,26.14
2022-08-04T05:36:32.743Z,25.59
2022-08-04T05:39:07.503Z,25.38
2022-08-04T05:41:45.778Z,24.98
2022-08-04T05:44:18.243Z,25.84
2022-08-04T05:46:54.001Z,26.91
2022-08-04T05:49:24.237Z,27.34
2022-08-04T05:51:55.853Z,26.53
2022-08-04T05:54:25.873Z,26.44
2022-08-04T05:56:56.066Z,26.77
2022-08-04T05:59:26.247Z,26.44
2022-08-04T06:01:58.984Z,26.05
2022-08-04T06:04:32.787Z,24.97
2022-08-04T06:07:00.560Z,24.61
2022-08-04T06:09:28.429Z,23.97
2022-08-04T06:12:03.238Z,23.17
2022-08-04T06:14:37.742Z,23.47
2022-08-04T06:17:18.364Z,23.52
2022-08-04T06:20:19.125Z,22.52
2022-08-04T06:22:50.472Z,21.45
2022-08-04T06:25:23.757Z,21.79
2022-08-04T06:27:52.697Z,21.92
2022-08-04T06:30:21.402Z,21.11
2022-08-04T06:33:03.350Z,22.13
2022-08-04T06:35:34.172Z,20.61
2022-08-04T06:38:04.292Z,20.45
2022-08-04T06:40:34.515Z,20.78
2022-08-04T06:43:03.863Z,19.35
2022-08-04T06:45:34.950Z,18.20
2022-08-04T06:48:04.820Z,17.75
2022-08-04T06:51:32.924Z,16.80
2022-08-04T06:53:21.888Z,17.92
2022-08-04T06:55:51.256Z,17.87
2022-08-04T06:58:22.069Z,17.37
2022-08-04T07:00:50.562Z,17.85
2022-08-04T07:03:21.684Z,17.48
2022-08-04T07:05:50.990Z,17.75
2022-08-04T07:08:19.079Z,18.08
2022-08-04T07:10:47.827Z,18.41
2022-08-04T07:13:16.813Z,18.87
2022-08-04T07:15:48.114Z,20.00
2022-08-04T07:18:16.242Z,19.28
2022-08-04T07:20:47.011Z,19.77
2022-08-04T07:23:18.914Z,19.62
2022-08-04T07:26:11.067Z,19.73
2022-08-04T07:28:41.639Z,19.84
2022-08-04T07:31:33.707Z,18.87
2022-08-04T07:34:17.178Z,17.74
2022-08-04T07:36:55.155Z,17.24
2022-08-04T07:39:28.528Z,16.77
2022-08-04T07:41:59.102Z,16.42
2022-08-04T07:44:27.848Z,15.99
2022-08-04T07:46:56.280Z,15.29
2022-08-04T07:49:56.510Z,16.08
2022-08-04T07:52:17.607Z,15.33
2022-08-04T07:54:46.133Z,15.47
2022-08-04T07:57:19.581Z,15.94
2022-08-04T08:00:02.517Z,15.54
2022-08-04T08:02:31.146Z,15.91
2022-08-04T08:04:59.052Z,17.88
2022-08-04T08:07:28.783Z,16.96
2022-08-04T08:09:57.302Z,15.53
2022-08-04T08:12:37.362Z,15.80
2022-08-04T08:15:15.906Z,15.53
2022-08-04T08:17:59.944Z,14.20
2022-08-04T08:20:31.179Z,15.22
2022-08-04T08:23:02.350Z,13.56
2022-08-04T08:25:32.304Z,13.05
2022-08-04T08:28:00.732Z,15.21
2022-08-04T08:30:32.109Z,15.62
2022-08-04T08:33:05.729Z,13.56
2022-08-04T08:35:47.414Z,14.54
2022-08-04T08:38:30.021Z,13.71
2022-08-04T08:41:05.112Z,14.20
2022-08-04T08:44:04.977Z,14.39
2022-08-04T08:46:50.085Z,13.78
2022-08-04T08:50:04.093Z,13.24
2022-08-04T08:52:55.356Z,14.55
2022-08-04T08:55:40.512Z,12.52
2022-08-04T08:58:24.447Z,14.05
2022-08-04T09:01:04.400Z,12.56
2022-08-04T09:04:02.850Z,12.90
2022-08-04T09:06:51.854Z,13.40
2022-08-04T09:09:52.668Z,15.97
2022-08-04T09:12:29.087Z,13.89
2022-08-04T09:15:05.694Z,14.84
2022-08-04T09:17:42.625Z,14.25
2022-08-04T09:20:17.678Z,14.83
2022-08-04T09:22:53.362Z,14.47
2022-08-04T09:25:25.893Z,14.64
2022-08-04T09:27:57.225Z,14.11
2022-08-04T09:30:30.352Z,14.63
2022-08-04T09:33:12.811Z,14.70
2022-08-04T09:35:53.701Z,15.24
2022-08-04T09:38:27.395Z,15.17
2022-08-04T09:41:04.631Z,14.47
2022-08-04T09:44:49.905Z,12.90
2022-08-04T09:46:54.561Z,13.31
2022-08-04T09:49:31.113Z,14.10
2022-08-04T09:52:08.862Z,13.44
2022-08-04T09:54:48.646Z,13.14
2022-08-04T09:57:31.242Z,13.75
2022-08-04T10:00:05.979Z,13.38
2022-08-04T10:02:39.157Z,13.65
2022-08-04T10:05:14.774Z,14.26
2022-08-04T10:08:17.216Z,14.24
2022-08-04T10:10:56.674Z,13.68
2022-08-04T10:13:37.876Z,14.43
2022-08-04T10:16:23.662Z,14.63
2022-08-04T10:19:08.300Z,14.83
2022-08-04T10:21:59.374Z,13.93
2022-08-04T10:24:57.107Z,15.50
2022-08-04T10:27:41.793Z,16.28
2022-08-04T10:30:19.706Z,13.80
2022-08-04T10:32:57.074Z,15.60
2022-08-04T10:35:33.995Z,15.82
2022-08-04T10:38:26.775Z,14.48
2022-08-04T10:41:07.909Z,13.77
2022-08-04T10:43:51.596Z,14.39
2022-08-04T10:46:24.534Z,14.73
2022-08-04T10:48:59.935Z,15.76
2022-08-04T10:51:58.379Z,15.20
2022-08-04T10:54:37.100Z,14.08
2022-08-04T10:57:09.814Z,14.48
2022-08-04T10:59:44.761Z,15.81
2022-08-04T11:02:35.305Z,15.43
2022-08-04T11:05:15.052Z,14.67
2022-08-04T11:07:46.431Z,15.25
2022-08-04T11:10:16.469Z,16.42
2022-08-04T11:12:46.835Z,14.90
2022-08-04T11:15:22.805Z,14.19
2022-08-04T11:17:57.921Z,16.16
2022-08-04T11:20:36.200Z,16.64
2022-08-04T11:23:08.314Z,14.83
2022-08-04T11:25:51.599Z,18.33
2022-08-04T11:28:30.394Z,15.91
2022-08-04T11:31:05.444Z,16.84
2022-08-04T11:33:45.539Z,17.51
2022-08-04T11:36:23.489Z,16.63
2022-08-04T11:38:57.923Z,16.68
2022-08-04T11:41:37.844Z,17.68
2022-08-04T11:44:12.302Z,17.62
2022-08-04T11:46:43.299Z,17.38
2022-08-04T11:49:27.973Z,18.44
2022-08-04T11:52:00.396Z,18.46
2022-08-04T11:54:28.884Z,17.72
2022-08-04T11:56:56.994Z,17.39
2022-08-04T11:59:28.354Z,18.86
2022-08-04T12:02:08.785Z,17.97
2022-08-04T12:04:48.421Z,17.56
2022-08-04T12:07:41.152Z,18.88
2022-08-04T12:10:41.826Z,18.60
2022-08-04T12:13:19.125Z,19.83
2022-08-04T12:15:57.548Z,19.64
2022-08-04T12:18:32.146Z,20.63
2022-08-04T12:21:02.787Z,19.94
2022-08-04T12:23:37.076Z,19.80
2022-08-04T12:26:08.398Z,20.09
2022-08-04T12:29:08.111Z,19.85
2022-08-04T12:31:29.529Z,20.62
2022-08-04T12:34:06.220Z,20.69
2022-08-04T12:36:41.146Z,20.49
2022-08-04T12:39:16.758Z,20.36
2022-08-04T12:41:52.028Z,21.17
2022-08-04T12:44:33.373Z,21.04
2022-08-04T12:47:26.860Z,22.14
2022-08-04T12:50:02.867Z,21.32
2022-08-04T12:55:29.080Z,21.43
2022-08-04T12:57:58.483Z,22.33
2022-08-04T13:00:32.132Z,21.82
2022-08-04T13:03:09.575Z,21.13
2022-08-04T13:05:40.362Z,21.75
2022-08-04T13:08:09.597Z,21.68
2022-08-04T13:10:42.196Z,21.60
2022-08-04T13:13:18.936Z,21.16
2022-08-04T13:15:57.989Z,21.78
2022-08-04T13:18:30.340Z,20.71
2022-08-04T13:21:20.133Z,20.63
2022-08-04T13:24:19.514Z,22.01
2022-08-04T13:26:54.706Z,21.51
2022-08-04T13:30:00.644Z,21.69
2022-08-04T13:32:18.757Z,21.49
2022-08-04T13:34:49.485Z,21.43
2022-08-04T13:37:23.462Z,21.44
2022-08-04T13:39:55.599Z,21.46
2022-08-04T13:42:28.191Z,21.85
2022-08-04T13:44:58.132Z,21.69
2022-08-04T13:47:29.717Z,21.90
2022-08-04T13:50:14.928Z,21.35
2022-08-04T13:52:43.325Z,21.34
2022-08-04T13:55:21.394Z,21.75
2022-08-04T13:57:54.604Z,21.87
2022-08-04T14:00:29.933Z,21.88
2022-08-04T14:03:23.339Z,21.25
2022-08-04T14:06:14.568Z,20.80
2022-08-04T14:08:53.603Z,21.51
2022-08-04T14:12:08.917Z,21.50
2022-08-04T14:14:22.874Z,20.95
2022-08-04T14:17:18.074Z,20.84
2022-08-04T14:20:00.415Z,20.38
2022-08-04T14:22:34.527Z,20.91
2022-08-04T14:25:06.363Z,20.82
2022-08-04T14:27:42.957Z,21.05
2022-08-04T14:30:32.743Z,20.89
2022-08-04T14:34:04.509Z,21.07
2022-08-04T14:36:15.743Z,21.66
2022-08-04T14:39:01.214Z,20.88
2022-08-04T14:41:50.398Z,21.63
2022-08-04T14:44:23.282Z,22.11
2022-08-04T14:47:05.223Z,21.07
2022-08-04T14:50:04.892Z,20.99
2022-08-04T14:52:44.134Z,21.09
2022-08-04T14:55:23.073Z,21.72
2022-08-04T14:58:36.510Z,21.12
2022-08-04T15:00:55.962Z,21.28
2022-08-04T15:03:28.027Z,21.53
2022-08-04T15:06:12.554Z,21.59
2022-08-04T15:08:46.929Z,21.69
2022-08-04T15:11:23.346Z,22.09
2022-08-04T15:13:51.937Z,21.50
2022-08-04T15:16:20.735Z,22.09
2022-08-04T15:18:51.032Z,22.30
2022-08-04T15:21:23.598Z,21.92
2022-08-04T15:23:51.617Z,22.54
2022-08-04T15:26:24.919Z,22.30
2022-08-04T15:28:57.121Z,22.27
2022-08-04T15:32:08.656Z,22.29
2022-08-04T15:34:16.195Z,21.77
2022-08-04T15:36:56.275Z,21.36
2022-08-04T15:39:39.608Z,20.92
2022-08-04T15:42:21.203Z,21.87
2022-08-04T15:45:05.513Z,21.45
2022-08-04T15:47:33.963Z,21.27
2022-08-04T15:50:09.361Z,21.13
2022-08-04T15:53:10.866Z,21.78
2022-08-04T15:55:43.182Z,22.37
2022-08-04T15:58:13.144Z,21.98
2022-08-04T16:01:16.011Z,22.29
2022-08-04T16:03:59.573Z,23.37
2022-08-04T16:06:48.439Z,22.66
2022-08-04T16:09:46.081Z,22.37
2022-08-04T16:12:54.247Z,23.92
2022-08-04T16:15:38.209Z,24.83
2022-08-04T16:18:13.771Z,23.94
2022-08-04T16:20:56.986Z,24.53
2022-08-04T16:24:00.791Z,23.22
2022-08-04T16:26:54.709Z,24.11
2022-08-04T16:29:36.459Z,24.03
2022-08-04T16:32:20.224Z,23.83
2022-08-04T16:34:55.085Z,23.09
2022-08-04T16:37:26.380Z,23.14
2022-08-04T16:40:35.367Z,24.93
2022-08-04T16:43:07.306Z,24.87
2022-08-04T16:45:46.826Z,24.71
2022-08-04T16:48:16.332Z,23.96
2022-08-04T16:50:53.346Z,25.02
2022-08-04T16:53:52.576Z,23.91
2022-08-04T16:56:15.036Z,24.59
2022-08-04T16:58:53.817Z,24.90
2022-08-04T17:01:33.631Z,24.71
2022-08-04T17:04:06.274Z,24.12
2022-08-04T17:06:36.266Z,24.58
2022-08-04T17:09:07.174Z,24.36
2022-08-04T17:11:36.502Z,25.14
2022-08-04T17:14:06.637Z,25.94
2022-08-04T17:16:36.994Z,25.19
2022-08-04T17:19:06.288Z,26.36
2022-08-04T17:21:36.200Z,26.85
2022-08-04T17:24:14.326Z,26.98
2022-08-04T17:26:51.901Z,26.33
2022-08-04T17:29:43.451Z,27.15
2022-08-04T17:32:17.214Z,27.71
2022-08-04T17:34:49.204Z,27.90
2022-08-04T17:37:38.236Z,28.28
2022-08-04T17:40:11.107Z,28.49
2022-08-04T17:42:42.029Z,28.54
2022-08-04T17:48:00.592Z,27.82
2022-08-04T17:50:35.958Z,28.05
2022-08-04T17:53:11.152Z,28.72
2022-08-04T17:55:42.889Z,29.19
2022-08-04T17:58:21.295Z,29.39
2022-08-04T18:00:51.160Z,28.75
2022-08-04T18:03:25.546Z,29.03
2022-08-04T18:06:03.187Z,29.49
2022-08-04T18:08:35.453Z,29.33
2022-08-04T18:11:21.986Z,29.59
2022-08-04T18:13:57.035Z,29.18
2022-08-04T18:16:25.355Z,29.66
2022-08-04T18:19:11.450Z,29.69
2022-08-04T18:21:46.868Z,29.88
2022-08-04T18:24:34.714Z,29.97
2022-08-04T18:27:06.512Z,30.18
2022-08-04T18:29:39.233Z,30.17
2022-08-04T18:32:09.159Z,30.96
2022-08-04T18:34:40.869Z,30.85
2022-08-04T18:38:05.718Z,32.28
2022-08-04T18:40:26.592Z,32.55
2022-08-04T18:42:59.992Z,33.08
2022-08-04T18:45:33.771Z,33.75
2022-08-04T18:48:14.044Z,33.39
2022-08-04T18:51:10.538Z,33.80
2022-08-04T18:53:35.668Z,34.72
2022-08-04T18:56:06.256Z,35.68
2022-08-04T18:58:52.615Z,35.36
2022-08-04T19:01:22.220Z,34.65
2022-08-04T19:03:58.301Z,35.00
2022-08-04T19:06:27.499Z,35.31
2022-08-04T19:08:55.841Z,36.00
2022-08-04T19:17:00.678Z,37.55
2022-08-04T19:22:35.895Z,39.25
2022-08-04T19:25:04.157Z,40.35
2022-08-04T19:27:38.579Z,40.77
2022-08-04T19:30:09.427Z,41.36
2022-08-04T19:32:40.759Z,40.95
2022-08-04T19:35:14.179Z,41.43
2022-08-04T19:37:58.478Z,39.82
2022-08-04T19:40:33.645Z,40.14
2022-08-04T19:43:14.232Z,40.05
2022-08-04T19:45:44.994Z,40.43
2022-08-04T19:48:22.123Z,40.86
2022-08-04T19:50:51.437Z,41.65
2022-08-04T19:53:26.710Z,41.86
2022-08-04T19:56:06.624Z,42.06
2022-08-04T19:58:34.371Z,42.19
2022-08-04T20:01:02.780Z,42.41
2022-08-04T20:04:08.479Z,42.21
2022-08-04T20:06:19.982Z,42.11
2022-08-04T20:08:48.258Z,42.65
2022-08-04T20:11:17.414Z,43.11
2022-08-04T20:13:54.160Z,43.93
2022-08-04T20:16:30.433Z,44.47
2022-08-04T20:19:03.846Z,44.46
2022-08-04T20:21:36.487Z,44.80
2022-08-04T20:24:36.584Z,43.60
2022-08-04T20:27:15.045Z,43.61
2022-08-04T20:29:48.570Z,43.92
2022-08-04T20:32:19.672Z,44.44
2022-08-04T20:34:49.637Z,44.85
2022-08-04T20:37:19.309Z,45.20
2022-08-04T20:39:54.863Z,45.69
2022-08-04T20:42:26.918Z,45.16
2022-08-04T20:44:56.296Z,45.52
2022-08-04T20:47:26.734Z,45.81
2022-08-04T20:50:00.779Z,46.65
2022-08-04T20:52:30.570Z,46.15
2022-08-04T20:54:58.624Z,45.99
2022-08-04T20:57:48.899Z,46.37
2022-08-04T21:00:15.413Z,47.06
2022-08-04T21:02:44.392Z,47.73
2022-08-04T21:05:13.745Z,48.34
2022-08-04T21:07:48.658Z,49.02
2022-08-04T21:10:16.977Z,49.54
2022-08-04T21:12:49.736Z,49.85
2022-08-04T21:15:25.125Z,49.94
2022-08-04T21:17:58.589Z,50.15
2022-08-04T21:20:36.115Z,49.77
2022-08-04T21:23:07.702Z,49.79
2022-08-04T21:25:42.464Z,48.39
2022-08-04T21:28:11.903Z,47.91
2022-08-04T21:30:52.473Z,47.92
2022-08-04T21:33:22.165Z,48.39
2022-08-04T21:35:53.980Z,50.15
2022-08-04T21:38:25.329Z,50.66
2022-08-04T21:41:01.790Z,51.56
2022-08-04T21:43:42.390Z,52.11
2022-08-04T21:46:11.807Z,52.25
2022-08-04T21:48:42.349Z,53.18
2022-08-04T21:51:57.433Z,53.06
2022-08-04T21:54:09.739Z,53.38
2022-08-04T21:56:42.750Z,52.59
2022-08-04T21:59:23.798Z,52.41
2022-08-04T22:01:58.363Z,52.60
2022-08-04T22:04:28.429Z,52.04
2022-08-04T22:06:57.881Z,51.57
2022-08-04T22:09:30.629Z,51.11
2022-08-04T22:12:07.440Z,50.56
2022-08-04T22:14:40.042Z,49.54
2022-08-04T22:17:13.629Z,49.71
2022-08-04T22:19:55.595Z,50.85
2022-08-04T22:22:27.219Z,51.19
2022-08-04T22:25:01.218Z,51.11
2022-08-04T22:27:47.819Z,52.05
2022-08-04T22:30:23.220Z,51.35
2022-08-04T22:32:51.333Z,50.70
2022-08-04T22:35:35.667Z,50.60
2022-08-04T22:38:21.885Z,49.99
2022-08-04T22:40:58.539Z,48.80
2022-08-04T22:43:32.311Z,48.07
2022-08-04T22:46:03.649Z,48.29
2022-08-04T22:48:32.842Z,48.47
2022-08-04T22:51:00.921Z,48.86
2022-08-04T22:53:32.760Z,48.95
2022-08-04T22:56:09.241Z,48.93
2022-08-04T22:58:40.077Z,51.05
2022-08-04T23:01:08.642Z,50.70
2022-08-04T23:03:38.389Z,52.20
2022-08-04T23:06:10.510Z,51.76
2022-08-04T23:08:43.080Z,50.80
2022-08-04T23:11:15.022Z,51.46
2022-08-04T23:13:43.006Z,50.81
2022-08-04T23:16:11.660Z,51.34
2022-08-04T23:18:42.027Z,49.48
2022-08-04T23:21:11.610Z,48.93
2022-08-04T23:23:45.575Z,47.78
2022-08-04T23:26:27.620Z,47.68
2022-08-04T23:28:56.416Z,46.68
2022-08-04T23:31:25.196Z,46.00
2022-08-04T23:34:08.625Z,45.94
2022-08-04T23:36:36.898Z,46.29
2022-08-04T23:39:06.606Z,46.09
2022-08-04T23:41:53.431Z,46.46
2022-08-04T23:44:24.900Z,46.22
2022-08-04T23:46:59.186Z,46.66
2022-08-04T23:49:44.395Z,46.80
2022-08-04T23:52:23.372Z,46.53
2022-08-04T23:54:59.236Z,46.92
2022-08-04T23:58:02.384Z,46.62
